createdAt,value
2023-05-20T00:09:37.947Z,15.7
2023-05-20T00:39:55.721Z,15.5
2023-05-20T01:10:14.345Z,15.3
2023-05-20T01:40:32.186Z,15
2023-05-20T02:10:47.820Z,14.5
2023-05-20T02:41:05.045Z,13.9
2023-05-20T03:11:23.088Z,13.95
2023-05-20T03:41:41.038Z,13.9
2023-05-20T04:42:17.747Z,14.05
2023-05-20T05:12:35.800Z,14.3
2023-05-20T05:42:54.718Z,14.65
2023-05-20T06:13:15.963Z,16.45
2023-05-20T06:43:42.303Z,17.15
2023-05-20T07:14:02.552Z,18.5
2023-05-20T07:44:18.230Z,18.2
2023-05-20T08:14:30.861Z,18.05
2023-05-20T09:15:28.920Z,21.45
2023-05-20T09:45:44.559Z,22.2
2023-05-20T10:15:59.127Z,22.3
2023-05-20T10:46:26.299Z,20
2023-05-20T11:16:29.185Z,20.1
2023-05-20T11:47:00.092Z,23.85
2023-05-20T12:17:13.954Z,23
2023-05-20T12:47:40.590Z,22.4
2023-05-20T13:17:49.209Z,23.55
2023-05-20T13:48:11.528Z,22.6
2023-05-20T14:18:20.075Z,22.85
2023-05-20T14:48:29.619Z,21.85
2023-05-20T15:18:44.236Z,21.1
2023-05-20T15:49:00.903Z,20.95
2023-05-20T16:19:19.144Z,20.6
2023-05-20T16:49:35.124Z,20.5
2023-05-20T17:19:55.307Z,20.4
2023-05-20T17:50:11.398Z,20
2023-05-20T18:50:43.990Z,18.85
2023-05-20T19:21:00.959Z,18.45
2023-05-20T19:51:17.818Z,17.85
2023-05-20T20:21:36.711Z,17.65
2023-05-20T20:51:55.258Z,17.35
2023-05-20T21:22:13.234Z,17.2
2023-05-20T21:52:32.269Z,17.1
2023-05-20T22:22:49.270Z,16.95
2023-05-20T22:53:06.090Z,16.75
2023-05-20T23:23:30.375Z,16.4
2023-05-20T23:53:45.002Z,16.25
